sensor_id;sensor_type;location;lat;lon;timestamp;pressure;altitude;pressure_sealevel;temperature;humidity
43450;BME280;29041;42.266;23.110;2022-09-09T00:02:34;95995.00;;;22.48;58.71
43450;BME280;29041;42.266;23.110;2022-09-09T00:05:29;95986.03;;;22.08;59.96
43450;BME280;29041;42.266;23.110;2022-09-09T00:08:19;95993.47;;;21.79;61.42
43450;BME280;29041;42.266;23.110;2022-09-09T00:11:11;95982.53;;;21.86;61.00
43450;BME280;29041;42.266;23.110;2022-09-09T00:14:00;95979.81;;;21.64;61.57
43450;BME280;29041;42.266;23.110;2022-09-09T00:16:53;95980.56;;;21.61;61.82
43450;BME280;29041;42.266;23.110;2022-09-09T00:19:44;95971.97;;;21.55;61.86
43450;BME280;29041;42.266;23.110;2022-09-09T00:22:39;95973.91;;;21.51;61.58
43450;BME280;29041;42.266;23.110;2022-09-09T00:25:34;95991.03;;;21.48;61.54
43450;BME280;29041;42.266;23.110;2022-09-09T00:28:26;95991.84;;;21.56;61.53
43450;BME280;29041;42.266;23.110;2022-09-09T00:31:19;95982.94;;;22.06;59.71
43450;BME280;29041;42.266;23.110;2022-09-09T00:34:09;95989.94;;;21.82;60.05
43450;BME280;29041;42.266;23.110;2022-09-09T00:36:58;95987.50;;;21.26;61.48
43450;BME280;29041;42.266;23.110;2022-09-09T00:39:48;95976.19;;;21.24;61.90
43450;BME280;29041;42.266;23.110;2022-09-09T00:42:41;95974.63;;;21.23;61.98
43450;BME280;29041;42.266;23.110;2022-09-09T00:45:43;95964.53;;;21.49;61.37
43450;BME280;29041;42.266;23.110;2022-09-09T00:48:45;95973.16;;;22.01;59.30
43450;BME280;29041;42.266;23.110;2022-09-09T00:51:41;95973.19;;;21.76;60.35
43450;BME280;29041;42.266;23.110;2022-09-09T00:54:37;95973.50;;;21.42;61.49
43450;BME280;29041;42.266;23.110;2022-09-09T00:57:30;95971.06;;;21.01;63.01
43450;BME280;29041;42.266;23.110;2022-09-09T01:00:20;95976.91;;;20.99;63.30
43450;BME280;29041;42.266;23.110;2022-09-09T01:03:22;95966.06;;;21.21;62.33
43450;BME280;29041;42.266;23.110;2022-09-09T01:06:16;95976.91;;;21.03;62.71
43450;BME280;29041;42.266;23.110;2022-09-09T01:09:17;95970.69;;;21.13;62.28
43450;BME280;29041;42.266;23.110;2022-09-09T01:12:11;95985.38;;;20.76;64.04
43450;BME280;29041;42.266;23.110;2022-09-09T01:15:08;95982.03;;;21.15;62.64
43450;BME280;29041;42.266;23.110;2022-09-09T01:18:00;95986.75;;;21.36;61.63
43450;BME280;29041;42.266;23.110;2022-09-09T01:20:53;95986.84;;;22.01;59.28
43450;BME280;29041;42.266;23.110;2022-09-09T01:23:53;95992.22;;;21.36;61.55
43450;BME280;29041;42.266;23.110;2022-09-09T01:26:51;95994.19;;;21.54;60.86
43450;BME280;29041;42.266;23.110;2022-09-09T01:29:39;95999.75;;;20.69;63.80
43450;BME280;29041;42.266;23.110;2022-09-09T01:32:42;95986.75;;;21.29;61.78
43450;BME280;29041;42.266;23.110;2022-09-09T01:35:39;95985.56;;;21.34;61.69
43450;BME280;29041;42.266;23.110;2022-09-09T01:38:28;95990.16;;;21.01;63.08
43450;BME280;29041;42.266;23.110;2022-09-09T01:41:15;95987.69;;;20.74;63.60
43450;BME280;29041;42.266;23.110;2022-09-09T01:44:04;95980.72;;;20.80;63.74
43450;BME280;29041;42.266;23.110;2022-09-09T01:46:52;95976.78;;;20.74;63.50
43450;BME280;29041;42.266;23.110;2022-09-09T01:49:39;95972.38;;;20.51;64.58
43450;BME280;29041;42.266;23.110;2022-09-09T01:52:26;95960.28;;;20.52;64.08
43450;BME280;29041;42.266;23.110;2022-09-09T01:55:14;95974.19;;;20.29;65.28
43450;BME280;29041;42.266;23.110;2022-09-09T01:58:13;95974.72;;;20.53;64.85
43450;BME280;29041;42.266;23.110;2022-09-09T02:01:12;95978.94;;;20.36;64.96
43450;BME280;29041;42.266;23.110;2022-09-09T02:04:07;95968.03;;;20.39;65.03
43450;BME280;29041;42.266;23.110;2022-09-09T02:06:56;95971.44;;;20.22;65.09
43450;BME280;29041;42.266;23.110;2022-09-09T02:09:47;95959.94;;;20.54;64.02
43450;BME280;29041;42.266;23.110;2022-09-09T02:12:57;95968.88;;;20.51;63.74
43450;BME280;29041;42.266;23.110;2022-09-09T02:15:52;95980.31;;;20.15;65.71
43450;BME280;29041;42.266;23.110;2022-09-09T02:18:47;95970.72;;;20.32;65.38
43450;BME280;29041;42.266;23.110;2022-09-09T02:21:37;95974.41;;;19.99;66.20
43450;BME280;29041;42.266;23.110;2022-09-09T02:24:26;95973.34;;;20.18;66.03
43450;BME280;29041;42.266;23.110;2022-09-09T02:27:14;95955.75;;;20.74;64.41
43450;BME280;29041;42.266;23.110;2022-09-09T02:30:04;95966.38;;;21.01;63.33
43450;BME280;29041;42.266;23.110;2022-09-09T02:32:52;95956.53;;;20.75;63.52
43450;BME280;29041;42.266;23.110;2022-09-09T02:35:45;95957.44;;;20.31;64.76
43450;BME280;29041;42.266;23.110;2022-09-09T02:38:35;95960.50;;;20.18;64.41
43450;BME280;29041;42.266;23.110;2022-09-09T02:41:28;95972.19;;;20.89;62.99
43450;BME280;29041;42.266;23.110;2022-09-09T02:44:18;95972.63;;;20.28;64.67
43450;BME280;29041;42.266;23.110;2022-09-09T02:47:17;95987.09;;;20.32;64.36
43450;BME280;29041;42.266;23.110;2022-09-09T02:50:12;95985.19;;;20.43;63.81
43450;BME280;29041;42.266;23.110;2022-09-09T02:53:07;95998.38;;;20.34;64.17
43450;BME280;29041;42.266;23.110;2022-09-09T02:55:59;95986.59;;;20.19;64.65
43450;BME280;29041;42.266;23.110;2022-09-09T02:58:50;95987.81;;;20.99;61.18
43450;BME280;29041;42.266;23.110;2022-09-09T03:01:37;95980.09;;;20.38;63.26
43450;BME280;29041;42.266;23.110;2022-09-09T03:04:25;95985.41;;;20.13;64.40
43450;BME280;29041;42.266;23.110;2022-09-09T03:07:12;95979.00;;;19.91;65.45
43450;BME280;29041;42.266;23.110;2022-09-09T03:10:01;95979.22;;;20.23;64.54
43450;BME280;29041;42.266;23.110;2022-09-09T03:12:53;95981.81;;;20.05;65.00
43450;BME280;29041;42.266;23.110;2022-09-09T03:15:41;95986.25;;;19.76;66.05
43450;BME280;29041;42.266;23.110;2022-09-09T03:18:28;95987.69;;;20.07;64.79
43450;BME280;29041;42.266;23.110;2022-09-09T03:21:15;95986.50;;;20.05;65.45
43450;BME280;29041;42.266;23.110;2022-09-09T03:24:02;95989.16;;;19.94;65.41
43450;BME280;29041;42.266;23.110;2022-09-09T03:26:51;95987.34;;;20.79;62.21
43450;BME280;29041;42.266;23.110;2022-09-09T03:29:38;95978.50;;;19.81;64.12
43450;BME280;29041;42.266;23.110;2022-09-09T03:32:25;95990.03;;;20.09;63.61
43450;BME280;29041;42.266;23.110;2022-09-09T03:35:13;95982.31;;;19.73;65.00
43450;BME280;29041;42.266;23.110;2022-09-09T03:38:01;95982.97;;;19.56;66.13
43450;BME280;29041;42.266;23.110;2022-09-09T03:40:49;95990.38;;;19.62;65.94
43450;BME280;29041;42.266;23.110;2022-09-09T03:43:38;95990.91;;;19.75;65.79
43450;BME280;29041;42.266;23.110;2022-09-09T03:46:26;95980.47;;;19.40;66.90
43450;BME280;29041;42.266;23.110;2022-09-09T03:49:13;95988.22;;;19.79;66.10
43450;BME280;29041;42.266;23.110;2022-09-09T03:52:01;95992.97;;;19.48;67.19
43450;BME280;29041;42.266;23.110;2022-09-09T03:54:48;95999.19;;;19.45;67.44
43450;BME280;29041;42.266;23.110;2022-09-09T03:57:35;95983.84;;;19.71;65.50
43450;BME280;29041;42.266;23.110;2022-09-09T04:00:24;95991.66;;;19.72;66.02
43450;BME280;29041;42.266;23.110;2022-09-09T04:03:12;95995.41;;;20.02;64.98
43450;BME280;29041;42.266;23.110;2022-09-09T04:06:00;96002.16;;;19.70;66.32
43450;BME280;29041;42.266;23.110;2022-09-09T04:08:48;95993.53;;;19.64;65.51
43450;BME280;29041;42.266;23.110;2022-09-09T04:11:37;95993.72;;;19.07;67.98
43450;BME280;29041;42.266;23.110;2022-09-09T04:14:24;95994.75;;;18.95;68.54
43450;BME280;29041;42.266;23.110;2022-09-09T04:17:15;95994.63;;;19.18;67.64
43450;BME280;29041;42.266;23.110;2022-09-09T04:20:03;95994.25;;;19.58;66.33
43450;BME280;29041;42.266;23.110;2022-09-09T04:22:50;95996.38;;;19.00;67.60
43450;BME280;29041;42.266;23.110;2022-09-09T04:25:37;95988.59;;;18.98;67.99
43450;BME280;29041;42.266;23.110;2022-09-09T04:28:26;95987.22;;;19.53;65.74
43450;BME280;29041;42.266;23.110;2022-09-09T04:31:16;95989.78;;;19.01;68.39
43450;BME280;29041;42.266;23.110;2022-09-09T04:34:05;95985.53;;;19.41;66.47
43450;BME280;29041;42.266;23.110;2022-09-09T04:36:53;95995.22;;;19.01;67.07
43450;BME280;29041;42.266;23.110;2022-09-09T04:39:40;95993.94;;;18.34;70.00
43450;BME280;29041;42.266;23.110;2022-09-09T04:42:27;96005.00;;;19.06;67.66
43450;BME280;29041;42.266;23.110;2022-09-09T04:45:15;96014.09;;;18.90;68.47
43450;BME280;29041;42.266;23.110;2022-09-09T04:48:02;96016.69;;;19.44;67.47
43450;BME280;29041;42.266;23.110;2022-09-09T04:50:58;96023.91;;;20.11;64.72
43450;BME280;29041;42.266;23.110;2022-09-09T04:53:46;96025.56;;;19.78;65.05
43450;BME280;29041;42.266;23.110;2022-09-09T04:56:35;96025.47;;;19.68;66.02
43450;BME280;29041;42.266;23.110;2022-09-09T04:59:22;96017.72;;;19.73;65.69
43450;BME280;29041;42.266;23.110;2022-09-09T05:02:09;96012.00;;;19.44;66.13
43450;BME280;29041;42.266;23.110;2022-09-09T05:04:56;95994.69;;;19.22;67.33
43450;BME280;29041;42.266;23.110;2022-09-09T05:07:45;95985.66;;;19.52;66.84
43450;BME280;29041;42.266;23.110;2022-09-09T05:10:33;95980.00;;;19.75;66.22
43450;BME280;29041;42.266;23.110;2022-09-09T05:13:21;95972.78;;;20.53;63.27
43450;BME280;29041;42.266;23.110;2022-09-09T05:16:08;95977.78;;;20.44;64.03
43450;BME280;29041;42.266;23.110;2022-09-09T05:18:57;95964.22;;;20.51;63.52
43450;BME280;29041;42.266;23.110;2022-09-09T05:21:45;95963.16;;;20.74;62.84
43450;BME280;29041;42.266;23.110;2022-09-09T05:24:33;95971.41;;;20.88;63.02
43450;BME280;29041;42.266;23.110;2022-09-09T05:27:20;95962.78;;;20.75;63.63
43450;BME280;29041;42.266;23.110;2022-09-09T05:30:09;95955.09;;;21.10;63.43
43450;BME280;29041;42.266;23.110;2022-09-09T05:32:56;95958.22;;;21.16;62.42
43450;BME280;29041;42.266;23.110;2022-09-09T05:35:43;95952.00;;;21.22;62.50
43450;BME280;29041;42.266;23.110;2022-09-09T05:38:31;95939.59;;;21.58;61.87
43450;BME280;29041;42.266;23.110;2022-09-09T05:41:20;95951.28;;;21.51;62.07
43450;BME280;29041;42.266;23.110;2022-09-09T05:44:08;95946.56;;;22.20;60.85
43450;BME280;29041;42.266;23.110;2022-09-09T05:46:55;95967.31;;;21.99;59.74
43450;BME280;29041;42.266;23.110;2022-09-09T05:49:43;95955.19;;;22.08;59.89
43450;BME280;29041;42.266;23.110;2022-09-09T05:52:31;95962.63;;;22.07;59.91
43450;BME280;29041;42.266;23.110;2022-09-09T05:55:18;95972.63;;;22.79;58.22
43450;BME280;29041;42.266;23.110;2022-09-09T05:58:07;95976.63;;;22.45;58.25
43450;BME280;29041;42.266;23.110;2022-09-09T06:01:00;95973.47;;;22.69;57.54
43450;BME280;29041;42.266;23.110;2022-09-09T06:03:49;95967.38;;;23.21;55.82
43450;BME280;29041;42.266;23.110;2022-09-09T06:06:37;95967.13;;;22.82;56.88
43450;BME280;29041;42.266;23.110;2022-09-09T06:09:25;95974.59;;;22.75;57.99
43450;BME280;29041;42.266;23.110;2022-09-09T06:12:12;95972.34;;;22.55;58.61
43450;BME280;29041;42.266;23.110;2022-09-09T06:15:01;95976.81;;;23.76;55.96
43450;BME280;29041;42.266;23.110;2022-09-09T06:17:54;95983.50;;;23.71;55.60
43450;BME280;29041;42.266;23.110;2022-09-09T06:20:41;95970.41;;;24.39;54.02
43450;BME280;29041;42.266;23.110;2022-09-09T06:23:28;95972.31;;;24.46;53.45
43450;BME280;29041;42.266;23.110;2022-09-09T06:26:18;95972.09;;;24.67;52.96
43450;BME280;29041;42.266;23.110;2022-09-09T06:29:05;95975.78;;;24.50;53.56
43450;BME280;29041;42.266;23.110;2022-09-09T06:31:54;95966.03;;;24.83;53.17
43450;BME280;29041;42.266;23.110;2022-09-09T06:34:41;95953.13;;;25.11;51.60
43450;BME280;29041;42.266;23.110;2022-09-09T06:37:28;95958.75;;;25.00;51.89
43450;BME280;29041;42.266;23.110;2022-09-09T06:40:15;95958.78;;;25.83;49.44
43450;BME280;29041;42.266;23.110;2022-09-09T06:43:03;95960.06;;;25.19;51.26
43450;BME280;29041;42.266;23.110;2022-09-09T06:45:55;95957.72;;;25.76;51.99
43450;BME280;29041;42.266;23.110;2022-09-09T06:48:44;95973.59;;;26.36;49.04
43450;BME280;29041;42.266;23.110;2022-09-09T06:51:33;95972.56;;;27.31;47.30
43450;BME280;29041;42.266;23.110;2022-09-09T06:54:21;95947.72;;;30.44;39.57
43450;BME280;29041;42.266;23.110;2022-09-09T06:57:09;95946.22;;;31.91;37.11
43450;BME280;29041;42.266;23.110;2022-09-09T06:59:56;95957.09;;;32.63;34.69
43450;BME280;29041;42.266;23.110;2022-09-09T07:02:43;95954.66;;;35.36;30.89
43450;BME280;29041;42.266;23.110;2022-09-09T07:05:32;95960.03;;;35.54;30.72
43450;BME280;29041;42.266;23.110;2022-09-09T07:08:19;95948.97;;;35.96;29.88
43450;BME280;29041;42.266;23.110;2022-09-09T07:11:08;95955.59;;;33.76;32.23
43450;BME280;29041;42.266;23.110;2022-09-09T07:13:57;95960.16;;;29.52;40.38
43450;BME280;29041;42.266;23.110;2022-09-09T07:16:45;95960.41;;;29.45;41.81
43450;BME280;29041;42.266;23.110;2022-09-09T07:19:32;95948.66;;;29.80;40.56
43450;BME280;29041;42.266;23.110;2022-09-09T07:22:21;95943.28;;;33.67;33.21
43450;BME280;29041;42.266;23.110;2022-09-09T07:25:08;95935.94;;;33.79;32.95
43450;BME280;29041;42.266;23.110;2022-09-09T07:27:56;95935.19;;;32.74;34.81
43450;BME280;29041;42.266;23.110;2022-09-09T07:30:43;95941.38;;;32.88;35.13
43450;BME280;29041;42.266;23.110;2022-09-09T07:33:31;95920.03;;;36.61;28.75
43450;BME280;29041;42.266;23.110;2022-09-09T07:36:20;95924.66;;;37.92;26.41
43450;BME280;29041;42.266;23.110;2022-09-09T07:39:11;95939.88;;;31.72;35.75
43450;BME280;29041;42.266;23.110;2022-09-09T07:41:59;95938.22;;;30.89;37.08
43450;BME280;29041;42.266;23.110;2022-09-09T07:44:46;95929.78;;;31.65;35.84
43450;BME280;29041;42.266;23.110;2022-09-09T07:47:33;95939.19;;;28.57;42.61
43450;BME280;29041;42.266;23.110;2022-09-09T07:50:21;95937.63;;;28.73;42.84
43450;BME280;29041;42.266;23.110;2022-09-09T07:53:08;95944.47;;;31.66;36.57
43450;BME280;29041;42.266;23.110;2022-09-09T07:56:02;95953.81;;;30.96;36.41
43450;BME280;29041;42.266;23.110;2022-09-09T07:58:51;95960.56;;;29.12;39.74
43450;BME280;29041;42.266;23.110;2022-09-09T08:01:40;95943.88;;;29.93;39.09
43450;BME280;29041;42.266;23.110;2022-09-09T08:04:28;95933.97;;;31.20;36.57
43450;BME280;29041;42.266;23.110;2022-09-09T08:07:15;95933.16;;;29.56;39.31
43450;BME280;29041;42.266;23.110;2022-09-09T08:10:03;95929.41;;;29.50;38.53
43450;BME280;29041;42.266;23.110;2022-09-09T08:12:51;95932.91;;;28.99;39.23
43450;BME280;29041;42.266;23.110;2022-09-09T08:15:39;95939.78;;;28.02;42.22
43450;BME280;29041;42.266;23.110;2022-09-09T08:18:27;95944.00;;;28.40;41.19
43450;BME280;29041;42.266;23.110;2022-09-09T08:21:16;95938.41;;;27.94;42.43
43450;BME280;29041;42.266;23.110;2022-09-09T08:24:04;95936.38;;;27.65;42.30
43450;BME280;29041;42.266;23.110;2022-09-09T08:26:51;95945.97;;;28.40;41.89
43450;BME280;29041;42.266;23.110;2022-09-09T08:29:40;95932.75;;;29.32;38.90
43450;BME280;29041;42.266;23.110;2022-09-09T08:32:27;95939.38;;;28.50;41.30
43450;BME280;29041;42.266;23.110;2022-09-09T08:35:14;95932.16;;;29.89;38.92
43450;BME280;29041;42.266;23.110;2022-09-09T08:38:03;95930.59;;;31.02;37.48
43450;BME280;29041;42.266;23.110;2022-09-09T08:40:53;95921.84;;;28.57;42.14
43450;BME280;29041;42.266;23.110;2022-09-09T08:43:47;95927.06;;;29.23;42.88
43450;BME280;29041;42.266;23.110;2022-09-09T08:46:45;95935.16;;;29.69;40.58
43450;BME280;29041;42.266;23.110;2022-09-09T08:49:56;95935.72;;;28.40;43.91
43450;BME280;29041;42.266;23.110;2022-09-09T08:52:51;95917.06;;;30.03;41.00
43450;BME280;29041;42.266;23.110;2022-09-09T08:55:44;95906.00;;;30.03;40.17
43450;BME280;29041;42.266;23.110;2022-09-09T08:58:35;95902.75;;;30.17;40.14
43450;BME280;29041;42.266;23.110;2022-09-09T09:01:45;95918.50;;;29.34;43.12
43450;BME280;29041;42.266;23.110;2022-09-09T09:04:47;95915.56;;;29.11;43.29
43450;BME280;29041;42.266;23.110;2022-09-09T09:07:49;95916.91;;;29.20;42.10
43450;BME280;29041;42.266;23.110;2022-09-09T09:10:46;95911.25;;;29.75;41.58
43450;BME280;29041;42.266;23.110;2022-09-09T09:13:39;95899.00;;;30.68;40.08
43450;BME280;29041;42.266;23.110;2022-09-09T09:16:32;95912.47;;;29.61;41.53
43450;BME280;29041;42.266;23.110;2022-09-09T09:19:25;95905.00;;;30.32;41.21
43450;BME280;29041;42.266;23.110;2022-09-09T09:22:18;95898.47;;;31.46;38.83
43450;BME280;29041;42.266;23.110;2022-09-09T09:25:15;95893.06;;;30.79;41.33
43450;BME280;29041;42.266;23.110;2022-09-09T09:28:11;95889.47;;;31.32;38.72
43450;BME280;29041;42.266;23.110;2022-09-09T09:31:05;95887.91;;;29.76;42.95
43450;BME280;29041;42.266;23.110;2022-09-09T09:33:54;95891.44;;;30.47;42.17
43450;BME280;29041;42.266;23.110;2022-09-09T09:36:45;95887.09;;;30.23;43.11
43450;BME280;29041;42.266;23.110;2022-09-09T09:39:33;95886.34;;;29.75;43.92
43450;BME280;29041;42.266;23.110;2022-09-09T09:42:23;95886.06;;;30.08;42.46
43450;BME280;29041;42.266;23.110;2022-09-09T09:45:27;95880.66;;;30.27;42.83
43450;BME280;29041;42.266;23.110;2022-09-09T09:48:15;95869.53;;;30.17;42.89
43450;BME280;29041;42.266;23.110;2022-09-09T09:51:07;95865.09;;;30.42;42.79
43450;BME280;29041;42.266;23.110;2022-09-09T09:54:09;95862.66;;;30.44;41.89
43450;BME280;29041;42.266;23.110;2022-09-09T09:57:08;95851.25;;;30.42;41.82
43450;BME280;29041;42.266;23.110;2022-09-09T10:00:04;95851.53;;;30.89;40.94
43450;BME280;29041;42.266;23.110;2022-09-09T10:03:00;95866.25;;;31.08;41.00
43450;BME280;29041;42.266;23.110;2022-09-09T10:05:47;95865.41;;;30.98;40.29
43450;BME280;29041;42.266;23.110;2022-09-09T10:08:44;95861.78;;;31.42;39.27
43450;BME280;29041;42.266;23.110;2022-09-09T10:11:43;95868.69;;;31.37;39.62
43450;BME280;29041;42.266;23.110;2022-09-09T10:14:38;95858.59;;;30.80;41.29
43450;BME280;29041;42.266;23.110;2022-09-09T10:17:35;95876.81;;;31.22;40.81
43450;BME280;29041;42.266;23.110;2022-09-09T10:20:34;95869.88;;;31.17;40.23
43450;BME280;29041;42.266;23.110;2022-09-09T10:23:33;95865.69;;;31.63;39.23
43450;BME280;29041;42.266;23.110;2022-09-09T10:26:32;95874.38;;;31.84;40.01
43450;BME280;29041;42.266;23.110;2022-09-09T10:29:38;95880.47;;;31.60;37.98
43450;BME280;29041;42.266;23.110;2022-09-09T10:32:47;95881.09;;;31.14;37.99
43450;BME280;29041;42.266;23.110;2022-09-09T10:35:42;95879.47;;;31.35;37.31
43450;BME280;29041;42.266;23.110;2022-09-09T10:38:39;95874.25;;;31.46;36.39
43450;BME280;29041;42.266;23.110;2022-09-09T10:41:47;95876.69;;;31.35;37.35
43450;BME280;29041;42.266;23.110;2022-09-09T10:44:57;95881.47;;;31.85;35.90
43450;BME280;29041;42.266;23.110;2022-09-09T10:48:10;95884.53;;;31.96;35.78
43450;BME280;29041;42.266;23.110;2022-09-09T10:51:13;95891.91;;;30.67;38.58
43450;BME280;29041;42.266;23.110;2022-09-09T10:54:11;95887.09;;;31.12;38.00
43450;BME280;29041;42.266;23.110;2022-09-09T10:57:05;95901.03;;;30.77;39.86
43450;BME280;29041;42.266;23.110;2022-09-09T10:59:59;95902.72;;;31.69;38.85
43450;BME280;29041;42.266;23.110;2022-09-09T11:02:51;95897.84;;;32.20;37.56
43450;BME280;29041;42.266;23.110;2022-09-09T11:05:42;95902.22;;;31.21;38.44
43450;BME280;29041;42.266;23.110;2022-09-09T11:08:32;95902.63;;;31.41;38.67
43450;BME280;29041;42.266;23.110;2022-09-09T11:11:26;95901.69;;;31.44;39.38
43450;BME280;29041;42.266;23.110;2022-09-09T11:14:19;95891.06;;;29.87;43.03
43450;BME280;29041;42.266;23.110;2022-09-09T11:17:15;95887.28;;;29.46;45.91
43450;BME280;29041;42.266;23.110;2022-09-09T11:20:06;95893.81;;;30.13;44.90
43450;BME280;29041;42.266;23.110;2022-09-09T11:22:56;95899.72;;;29.89;44.68
43450;BME280;29041;42.266;23.110;2022-09-09T11:25:51;95895.16;;;30.31;44.04
43450;BME280;29041;42.266;23.110;2022-09-09T11:28:54;95882.53;;;30.07;45.26
43450;BME280;29041;42.266;23.110;2022-09-09T11:31:57;95866.34;;;29.71;46.63
43450;BME280;29041;42.266;23.110;2022-09-09T11:34:56;95866.59;;;29.38;47.64
43450;BME280;29041;42.266;23.110;2022-09-09T11:38:04;95875.69;;;29.99;45.83
43450;BME280;29041;42.266;23.110;2022-09-09T11:40:57;95858.16;;;31.23;43.06
43450;BME280;29041;42.266;23.110;2022-09-09T11:43:46;95858.66;;;29.40;47.09
43450;BME280;29041;42.266;23.110;2022-09-09T11:46:37;95862.94;;;29.02;49.05
43450;BME280;29041;42.266;23.110;2022-09-09T11:49:27;95858.41;;;29.21;48.66
43450;BME280;29041;42.266;23.110;2022-09-09T11:52:22;95858.59;;;29.66;47.98
43450;BME280;29041;42.266;23.110;2022-09-09T11:55:24;95857.88;;;29.13;49.34
43450;BME280;29041;42.266;23.110;2022-09-09T11:58:16;95855.53;;;29.99;47.25
43450;BME280;29041;42.266;23.110;2022-09-09T12:04:33;95851.34;;;28.39;51.26
43450;BME280;29041;42.266;23.110;2022-09-09T12:07:30;95844.34;;;29.16;49.01
43450;BME280;29041;42.266;23.110;2022-09-09T12:10:22;95840.03;;;29.88;47.66
43450;BME280;29041;42.266;23.110;2022-09-09T12:13:16;95846.03;;;30.44;45.55
43450;BME280;29041;42.266;23.110;2022-09-09T12:16:04;95846.00;;;30.89;43.94
43450;BME280;29041;42.266;23.110;2022-09-09T12:19:06;95848.13;;;30.84;43.86
43450;BME280;29041;42.266;23.110;2022-09-09T12:21:59;95836.53;;;29.40;45.89
43450;BME280;29041;42.266;23.110;2022-09-09T12:24:56;95835.00;;;29.74;45.47
43450;BME280;29041;42.266;23.110;2022-09-09T12:27:57;95839.28;;;30.45;43.86
43450;BME280;29041;42.266;23.110;2022-09-09T12:30:55;95835.28;;;30.24;44.40
43450;BME280;29041;42.266;23.110;2022-09-09T12:33:46;95827.28;;;30.48;43.66
43450;BME280;29041;42.266;23.110;2022-09-09T12:36:33;95835.66;;;30.13;43.47
43450;BME280;29041;42.266;23.110;2022-09-09T12:39:27;95828.97;;;30.68;42.34
43450;BME280;29041;42.266;23.110;2022-09-09T12:42:19;95824.78;;;30.19;43.82
43450;BME280;29041;42.266;23.110;2022-09-09T12:45:15;95822.63;;;29.66;44.65
43450;BME280;29041;42.266;23.110;2022-09-09T12:48:05;95826.06;;;29.70;45.20
43450;BME280;29041;42.266;23.110;2022-09-09T12:50:54;95836.47;;;28.62;47.18
43450;BME280;29041;42.266;23.110;2022-09-09T12:53:41;95830.44;;;29.32;46.28
43450;BME280;29041;42.266;23.110;2022-09-09T12:56:30;95820.78;;;29.98;44.51
43450;BME280;29041;42.266;23.110;2022-09-09T12:59:24;95831.84;;;29.98;44.76
43450;BME280;29041;42.266;23.110;2022-09-09T13:02:18;95817.63;;;30.09;44.29
43450;BME280;29041;42.266;23.110;2022-09-09T13:05:14;95823.72;;;29.68;45.23
43450;BME280;29041;42.266;23.110;2022-09-09T13:08:02;95816.34;;;29.65;45.03
43450;BME280;29041;42.266;23.110;2022-09-09T13:10:51;95825.81;;;30.12;43.96
43450;BME280;29041;42.266;23.110;2022-09-09T13:13:42;95818.59;;;30.15;43.62
43450;BME280;29041;42.266;23.110;2022-09-09T13:16:33;95811.25;;;29.64;44.81
43450;BME280;29041;42.266;23.110;2022-09-09T13:19:21;95812.03;;;29.64;44.42
43450;BME280;29041;42.266;23.110;2022-09-09T13:22:12;95807.22;;;28.78;46.80
43450;BME280;29041;42.266;23.110;2022-09-09T13:25:02;95813.75;;;28.84;47.82
43450;BME280;29041;42.266;23.110;2022-09-09T13:27:56;95810.44;;;29.41;47.53
43450;BME280;29041;42.266;23.110;2022-09-09T13:30:55;95811.91;;;29.68;47.65
43450;BME280;29041;42.266;23.110;2022-09-09T13:33:47;95802.25;;;30.07;47.21
43450;BME280;29041;42.266;23.110;2022-09-09T13:36:34;95808.00;;;29.04;51.09
43450;BME280;29041;42.266;23.110;2022-09-09T13:39:22;95798.25;;;29.25;51.29
43450;BME280;29041;42.266;23.110;2022-09-09T13:42:23;95794.72;;;29.38;50.24
43450;BME280;29041;42.266;23.110;2022-09-09T13:45:17;95774.94;;;28.49;54.63
43450;BME280;29041;42.266;23.110;2022-09-09T13:48:10;95775.06;;;28.58;55.02
43450;BME280;29041;42.266;23.110;2022-09-09T13:51:02;95759.44;;;28.39;53.87
43450;BME280;29041;42.266;23.110;2022-09-09T13:53:50;95755.94;;;28.64;51.88
43450;BME280;29041;42.266;23.110;2022-09-09T13:56:39;95750.03;;;29.39;49.85
43450;BME280;29041;42.266;23.110;2022-09-09T13:59:26;95750.94;;;28.46;56.01
43450;BME280;29041;42.266;23.110;2022-09-09T14:02:14;95755.00;;;28.15;58.33
43450;BME280;29041;42.266;23.110;2022-09-09T14:05:02;95742.00;;;28.29;60.78
43450;BME280;29041;42.266;23.110;2022-09-09T14:07:50;95729.22;;;28.87;58.79
43450;BME280;29041;42.266;23.110;2022-09-09T14:10:38;95725.19;;;29.26;54.88
43450;BME280;29041;42.266;23.110;2022-09-09T14:13:25;95717.97;;;29.29;55.06
43450;BME280;29041;42.266;23.110;2022-09-09T14:16:12;95721.31;;;29.81;53.71
43450;BME280;29041;42.266;23.110;2022-09-09T14:18:59;95722.63;;;29.89;52.65
43450;BME280;29041;42.266;23.110;2022-09-09T14:21:46;95716.38;;;29.76;53.94
43450;BME280;29041;42.266;23.110;2022-09-09T14:24:40;95720.88;;;29.83;49.71
43450;BME280;29041;42.266;23.110;2022-09-09T14:27:27;95717.13;;;30.21;48.28
43450;BME280;29041;42.266;23.110;2022-09-09T14:30:16;95719.50;;;31.13;45.82
43450;BME280;29041;42.266;23.110;2022-09-09T14:33:03;95699.25;;;29.90;49.40
43450;BME280;29041;42.266;23.110;2022-09-09T14:35:55;95691.25;;;30.46;46.84
43450;BME280;29041;42.266;23.110;2022-09-09T14:38:43;95705.06;;;30.37;47.26
43450;BME280;29041;42.266;23.110;2022-09-09T14:41:31;95695.59;;;29.94;48.22
43450;BME280;29041;42.266;23.110;2022-09-09T14:44:18;95705.50;;;29.37;48.71
43450;BME280;29041;42.266;23.110;2022-09-09T14:47:06;95706.09;;;30.52;46.33
43450;BME280;29041;42.266;23.110;2022-09-09T14:49:53;95707.84;;;30.37;45.58
43450;BME280;29041;42.266;23.110;2022-09-09T14:52:40;95706.59;;;31.10;43.00
43450;BME280;29041;42.266;23.110;2022-09-09T14:55:27;95705.09;;;30.78;44.43
43450;BME280;29041;42.266;23.110;2022-09-09T14:58:16;95708.63;;;30.78;43.74
43450;BME280;29041;42.266;23.110;2022-09-09T15:01:04;95703.47;;;30.27;45.42